Time;durP1;ratioP1;P1;durP2;ratioP2;P2;SDS_P1;SDS_P2;PMS_P1;PMS_P2;Temp;Humidity;BMP_temperature;BMP_pressure;BME280_temperature;BME280_humidity;BME280_pressure;Samples;Min_cycle;Max_cycle;Signal;HPM_P1;HPM_P2
2022/08/27 00:02:03;;;;;;;4.10;2.45;;;;;;;;;;5033379;28;20095;-75
2022/08/27 00:04:30;;;;;;;3.97;2.20;;;;;;;;;;5033098;28;20088;-75
2022/08/27 00:06:57;;;;;;;5.37;2.70;;;;;;;;;;5033298;28;20053;-75
2022/08/27 00:09:23;;;;;;;3.63;2.33;;;;;;;;;;5033135;28;20057;-75
2022/08/27 00:11:53;;;;;;;3.78;2.28;;;;;;;;;;5033901;28;20045;-75
2022/08/27 00:14:19;;;;;;;4.07;2.50;;;;;;;;;;5033181;28;20104;-75
2022/08/27 00:16:46;;;;;;;2.65;2.35;;;;;;;;;;5033061;28;20414;-76
2022/08/27 00:19:12;;;;;;;4.63;2.47;;;;;;;;;;5032972;28;20081;-75
2022/08/27 00:21:39;;;;;;;2.35;2.17;;;;;;;;;;5032467;28;20093;-75
2022/08/27 00:24:05;;;;;;;2.20;1.95;;;;;;;;;;5032363;28;20081;-75
2022/08/27 00:26:32;;;;;;;3.83;2.55;;;;;;;;;;5032655;28;20045;-75
2022/08/27 00:28:59;;;;;;;5.40;2.60;;;;;;;;;;5032525;28;20485;-75
2022/08/27 00:31:26;;;;;;;2.63;2.25;;;;;;;;;;5032934;28;20286;-75
2022/08/27 00:33:54;;;;;;;4.57;2.60;;;;;;;;;;5032774;28;20060;-75
2022/08/27 00:36:20;;;;;;;3.15;2.45;;;;;;;;;;5032536;28;20050;-75
2022/08/27 00:38:48;;;;;;;4.15;2.33;;;;;;;;;;5032362;28;20096;-75
2022/08/27 00:41:19;;;;;;;3.40;2.58;;;;;;;;;;5032465;28;20129;-76
2022/08/27 00:43:47;;;;;;;3.50;2.53;;;;;;;;;;5032307;28;20127;-76
2022/08/27 00:46:37;;;;;;;2.72;2.53;;;;;;;;;;5028784;28;20072;-76
2022/08/27 00:49:06;;;;;;;4.43;2.45;;;;;;;;;;5031001;28;20050;-76
2022/08/27 00:51:34;;;;;;;4.30;2.72;;;;;;;;;;5032020;28;20106;-76
2022/08/27 00:54:01;;;;;;;3.55;2.90;;;;;;;;;;5032516;28;20049;-76
2022/08/27 00:56:30;;;;;;;3.50;2.70;;;;;;;;;;5032212;28;20505;-75
2022/08/27 00:58:57;;;;;;;3.45;2.75;;;;;;;;;;5032272;28;20053;-75
2022/08/27 01:01:25;;;;;;;2.83;2.38;;;;;;;;;;5030871;28;20092;-75
2022/08/27 01:03:53;;;;;;;3.80;2.70;;;;;;;;;;5032016;28;20494;-74
2022/08/27 01:06:20;;;;;;;3.38;3.08;;;;;;;;;;5032344;28;20049;-75
2022/08/27 01:08:50;;;;;;;3.88;2.47;;;;;;;;;;5032186;28;20440;-75
2022/08/27 01:11:17;;;;;;;3.08;2.78;;;;;;;;;;5032157;28;20095;-75
2022/08/27 01:13:43;;;;;;;2.93;2.40;;;;;;;;;;5031923;28;20448;-75
2022/08/27 01:16:28;;;;;;;2.75;2.55;;;;;;;;;;5032029;28;20399;-75
2022/08/27 01:18:56;;;;;;;3.30;2.55;;;;;;;;;;5032084;28;20046;-75
2022/08/27 01:21:49;;;;;;;2.63;2.42;;;;;;;;;;5031436;28;20501;-75
2022/08/27 01:24:36;;;;;;;3.45;2.58;;;;;;;;;;5031361;28;20056;-75
2022/08/27 01:27:05;;;;;;;4.38;3.47;;;;;;;;;;5031588;28;20050;-75
2022/08/27 01:29:39;;;;;;;3.80;3.10;;;;;;;;;;5031571;28;20135;-75
2022/08/27 01:32:08;;;;;;;4.30;3.90;;;;;;;;;;5030546;28;20481;-75
2022/08/27 01:34:35;;;;;;;4.43;3.13;;;;;;;;;;5031798;28;20278;-75
2022/08/27 01:37:03;;;;;;;5.30;3.05;;;;;;;;;;5030823;28;20049;-75
2022/08/27 01:39:29;;;;;;;4.43;2.60;;;;;;;;;;5031850;28;20053;-75
2022/08/27 01:42:01;;;;;;;3.25;2.47;;;;;;;;;;5031822;28;20132;-75
2022/08/27 01:44:27;;;;;;;3.92;2.97;;;;;;;;;;5031811;28;20072;-75
2022/08/27 01:46:54;;;;;;;4.53;3.38;;;;;;;;;;5031774;28;20041;-75
2022/08/27 01:49:20;;;;;;;4.28;2.92;;;;;;;;;;5031666;28;20147;-75
2022/08/27 01:51:47;;;;;;;3.22;2.92;;;;;;;;;;5031351;28;20485;-75
2022/08/27 01:54:13;;;;;;;5.82;3.72;;;;;;;;;;5031608;28;20454;-76
2022/08/27 01:56:40;;;;;;;5.22;2.83;;;;;;;;;;5031287;28;20050;-76
2022/08/27 01:59:06;;;;;;;5.30;3.13;;;;;;;;;;5031384;28;20049;-76
2022/08/27 02:01:34;;;;;;;3.75;3.28;;;;;;;;;;5031566;28;20430;-76
2022/08/27 02:04:00;;;;;;;4.47;2.88;;;;;;;;;;5031418;28;20081;-76
2022/08/27 02:06:27;;;;;;;3.72;3.42;;;;;;;;;;5031116;28;20056;-75
2022/08/27 02:08:53;;;;;;;4.50;3.58;;;;;;;;;;5031236;28;20053;-75
2022/08/27 02:11:20;;;;;;;5.90;3.10;;;;;;;;;;5030631;28;20464;-75
2022/08/27 02:13:46;;;;;;;3.40;3.10;;;;;;;;;;5031191;28;20049;-75
2022/08/27 02:16:13;;;;;;;4.13;3.50;;;;;;;;;;5031095;28;20475;-75
2022/08/27 02:18:39;;;;;;;4.55;3.50;;;;;;;;;;5031402;28;20085;-75
2022/08/27 02:21:08;;;;;;;3.42;3.13;;;;;;;;;;5029870;28;20053;-76
2022/08/27 02:23:34;;;;;;;4.22;3.20;;;;;;;;;;5031434;28;20163;-76
2022/08/27 02:26:01;;;;;;;4.43;3.83;;;;;;;;;;5031439;28;20477;-76
2022/08/27 02:28:27;;;;;;;4.38;3.58;;;;;;;;;;5031189;28;20053;-75
2022/08/27 02:30:54;;;;;;;4.10;3.70;;;;;;;;;;5031358;28;20131;-75
2022/08/27 02:33:20;;;;;;;7.00;4.18;;;;;;;;;;5031187;28;20072;-75
2022/08/27 02:35:47;;;;;;;6.47;4.50;;;;;;;;;;5031249;28;20077;-75
2022/08/27 02:38:13;;;;;;;5.75;4.40;;;;;;;;;;5030925;28;20525;-75
2022/08/27 02:40:40;;;;;;;4.30;3.90;;;;;;;;;;5031012;28;20049;-75
2022/08/27 02:43:06;;;;;;;5.30;3.47;;;;;;;;;;5031271;28;20164;-75
2022/08/27 02:45:35;;;;;;;4.53;4.07;;;;;;;;;;5030932;28;20112;-75
2022/08/27 02:48:02;;;;;;;6.05;4.40;;;;;;;;;;5033472;28;20049;-76
2022/08/27 02:50:29;;;;;;;5.63;4.10;;;;;;;;;;5034435;28;20054;-76
2022/08/27 02:52:56;;;;;;;4.70;3.88;;;;;;;;;;5034456;28;20060;-76
2022/08/27 02:55:23;;;;;;;5.22;3.75;;;;;;;;;;5034397;28;20076;-75
2022/08/27 02:57:49;;;;;;;4.10;3.22;;;;;;;;;;5034653;28;20440;-75
2022/08/27 03:00:17;;;;;;;4.60;3.53;;;;;;;;;;5034098;28;20578;-74
2022/08/27 03:02:44;;;;;;;4.07;3.50;;;;;;;;;;5034449;28;20049;-75
2022/08/27 03:05:11;;;;;;;5.10;3.50;;;;;;;;;;5034507;28;20053;-75
2022/08/27 03:07:37;;;;;;;3.60;2.70;;;;;;;;;;5034174;28;20046;-75
2022/08/27 03:10:04;;;;;;;5.45;3.08;;;;;;;;;;5034408;28;20107;-75
2022/08/27 03:12:31;;;;;;;5.47;3.60;;;;;;;;;;5034271;28;20100;-75
2022/08/27 03:14:57;;;;;;;3.20;2.83;;;;;;;;;;5034203;28;20050;-75
2022/08/27 03:18:25;;;;;;;4.00;3.00;;;;;;;;;;5034380;28;20512;-75
2022/08/27 03:20:19;;;;;;;3.45;2.92;;;;;;;;;;5033065;28;20458;-75
2022/08/27 03:22:46;;;;;;;3.95;3.08;;;;;;;;;;5034171;28;20046;-75
2022/08/27 03:25:12;;;;;;;3.50;3.20;;;;;;;;;;5034136;28;20080;-75
2022/08/27 03:27:39;;;;;;;4.55;3.22;;;;;;;;;;5034102;28;20081;-75
2022/08/27 03:30:08;;;;;;;3.60;3.30;;;;;;;;;;5033706;28;20064;-75
2022/08/27 03:32:34;;;;;;;3.83;3.28;;;;;;;;;;5034009;28;20060;-75
2022/08/27 03:35:01;;;;;;;3.72;3.22;;;;;;;;;;5034022;28;20053;-75
2022/08/27 03:37:27;;;;;;;4.22;3.53;;;;;;;;;;5033964;28;20164;-75
2022/08/27 03:39:54;;;;;;;3.63;3.28;;;;;;;;;;5033959;28;20095;-76
2022/08/27 03:42:21;;;;;;;4.20;2.90;;;;;;;;;;5033731;28;20075;-76
2022/08/27 03:44:47;;;;;;;3.40;3.03;;;;;;;;;;5033747;28;20069;-75
2022/08/27 03:47:14;;;;;;;3.10;2.85;;;;;;;;;;5033370;28;20045;-76
2022/08/27 03:49:40;;;;;;;3.25;2.95;;;;;;;;;;5033717;28;20046;-76
2022/08/27 03:52:07;;;;;;;4.22;3.42;;;;;;;;;;5033626;28;20103;-76
2022/08/27 03:54:34;;;;;;;3.80;2.90;;;;;;;;;;5033287;28;20053;-75
2022/08/27 03:57:01;;;;;;;4.38;3.20;;;;;;;;;;5033586;28;20110;-76
2022/08/27 03:59:28;;;;;;;3.33;2.87;;;;;;;;;;5032542;28;20073;-76
2022/08/27 04:01:54;;;;;;;3.22;2.90;;;;;;;;;;5033380;28;20134;-76
2022/08/27 04:04:22;;;;;;;3.45;2.95;;;;;;;;;;5033243;28;20041;-75
2022/08/27 04:06:49;;;;;;;5.47;3.42;;;;;;;;;;5033342;28;20485;-75
2022/08/27 04:09:16;;;;;;;4.77;3.43;;;;;;;;;;5033249;28;20045;-75
2022/08/27 04:11:43;;;;;;;3.80;3.40;;;;;;;;;;5033109;28;20146;-75
2022/08/27 04:14:09;;;;;;;3.50;3.20;;;;;;;;;;5033114;28;20061;-75
2022/08/27 04:16:53;;;;;;;3.38;3.08;;;;;;;;;;5032925;28;20493;-75
2022/08/27 04:19:21;;;;;;;3.67;2.80;;;;;;;;;;5033116;28;20053;-75
2022/08/27 04:21:53;;;;;;;9.02;3.40;;;;;;;;;;5032565;28;20409;-75
2022/08/27 04:24:19;;;;;;;3.60;3.30;;;;;;;;;;5032852;28;20049;-75
2022/08/27 04:26:46;;;;;;;3.15;2.80;;;;;;;;;;5032644;28;20087;-75
2022/08/27 04:29:13;;;;;;;4.90;3.30;;;;;;;;;;5032960;28;20045;-75
2022/08/27 04:31:39;;;;;;;3.25;2.95;;;;;;;;;;5032735;28;20057;-75
2022/08/27 04:34:06;;;;;;;8.85;3.60;;;;;;;;;;5032653;28;20057;-75
2022/08/27 04:36:33;;;;;;;3.47;2.80;;;;;;;;;;5032770;28;20107;-75
2022/08/27 04:39:00;;;;;;;3.10;2.80;;;;;;;;;;5032387;28;20770;-75
2022/08/27 04:41:26;;;;;;;4.73;3.17;;;;;;;;;;5032600;28;20077;-75
2022/08/27 04:43:55;;;;;;;4.72;2.95;;;;;;;;;;5032607;28;20314;-75
2022/08/27 04:46:25;;;;;;;4.90;2.92;;;;;;;;;;5032517;28;20505;-75
2022/08/27 04:48:52;;;;;;;3.47;3.17;;;;;;;;;;5032527;28;20045;-75
2022/08/27 04:51:19;;;;;;;3.87;3.40;;;;;;;;;;5032243;28;20103;-76
2022/08/27 04:53:46;;;;;;;4.95;2.85;;;;;;;;;;5032114;28;20297;-76
2022/08/27 04:56:15;;;;;;;3.03;2.72;;;;;;;;;;5032128;28;20088;-76
2022/08/27 04:58:41;;;;;;;3.67;3.10;;;;;;;;;;5032232;28;20072;-76
2022/08/27 05:01:08;;;;;;;3.72;3.20;;;;;;;;;;5032201;28;20085;-76
2022/08/27 05:03:34;;;;;;;3.50;3.20;;;;;;;;;;5032119;28;20056;-76
2022/08/27 05:06:02;;;;;;;6.68;3.42;;;;;;;;;;5031912;28;20046;-76
2022/08/27 05:08:29;;;;;;;4.30;3.33;;;;;;;;;;5032193;28;20436;-76
2022/08/27 05:10:56;;;;;;;3.17;2.87;;;;;;;;;;5032014;28;20123;-76
2022/08/27 05:13:23;;;;;;;3.80;3.08;;;;;;;;;;5032968;28;20382;-76
2022/08/27 05:15:57;;;;;;;5.10;3.33;;;;;;;;;;5031795;28;20494;-76
2022/08/27 05:18:23;;;;;;;3.72;3.17;;;;;;;;;;5032011;28;20052;-76
2022/08/27 05:20:49;;;;;;;4.13;3.03;;;;;;;;;;5031403;28;20116;-76
2022/08/27 05:23:17;;;;;;;3.20;2.90;;;;;;;;;;5030580;28;20079;-76
2022/08/27 05:25:45;;;;;;;4.30;2.95;;;;;;;;;;5032032;28;20041;-75
2022/08/27 05:28:12;;;;;;;;;;;;;;;;;;5031999;28;20481;-75
2022/08/27 05:30:40;;;;;;;4.43;3.13;;;;;;;;;;5032141;28;19925;-75
2022/08/27 05:33:07;;;;;;;4.85;3.40;;;;;;;;;;5030280;28;20140;-75
2022/08/27 05:35:39;;;;;;;4.63;2.90;;;;;;;;;;5031595;28;20486;-75
2022/08/27 05:38:05;;;;;;;4.90;3.13;;;;;;;;;;5032052;28;20088;-76
2022/08/27 05:40:32;;;;;;;4.28;3.20;;;;;;;;;;5031786;28;20045;-76
2022/08/27 05:42:59;;;;;;;3.93;3.63;;;;;;;;;;5031433;28;20053;-76
2022/08/27 05:45:25;;;;;;;4.63;3.35;;;;;;;;;;5031559;28;20274;-76
2022/08/27 05:47:52;;;;;;;5.18;3.75;;;;;;;;;;5031813;28;20049;-76
2022/08/27 05:50:18;;;;;;;3.58;3.28;;;;;;;;;;5031621;28;20073;-76
2022/08/27 05:52:48;;;;;;;6.00;3.60;;;;;;;;;;5031588;28;20122;-76
2022/08/27 05:55:15;;;;;;;3.63;3.33;;;;;;;;;;5030191;28;20053;-76
2022/08/27 05:57:42;;;;;;;6.22;3.60;;;;;;;;;;5031665;28;20046;-76
2022/08/27 06:02:53;;;;;;;5.05;3.90;;;;;;;;;;5032145;28;20053;-76
2022/08/27 06:05:20;;;;;;;3.60;3.30;;;;;;;;;;5031612;28;20483;-76
2022/08/27 06:07:46;;;;;;;5.07;4.20;;;;;;;;;;5031536;28;20042;-76
2022/08/27 06:10:13;;;;;;;5.97;3.60;;;;;;;;;;5031359;28;20049;-76
2022/08/27 06:12:39;;;;;;;3.72;3.20;;;;;;;;;;5031190;28;20541;-76
2022/08/27 06:15:06;;;;;;;4.13;3.05;;;;;;;;;;5029964;28;20091;-75
2022/08/27 06:17:32;;;;;;;4.53;3.38;;;;;;;;;;5031301;28;20049;-75
2022/08/27 06:19:59;;;;;;;5.60;3.63;;;;;;;;;;5031312;28;20057;-76
2022/08/27 06:22:25;;;;;;;5.28;3.50;;;;;;;;;;5032539;28;20084;-76
2022/08/27 06:24:52;;;;;;;7.50;3.92;;;;;;;;;;5035219;28;20464;-77
2022/08/27 06:27:20;;;;;;;5.88;3.78;;;;;;;;;;5034909;28;20498;-77
2022/08/27 06:29:46;;;;;;;3.58;3.28;;;;;;;;;;5035059;28;20069;-76
2022/08/27 06:32:13;;;;;;;3.70;3.40;;;;;;;;;;5035069;28;20046;-75
2022/08/27 06:34:40;;;;;;;4.07;3.35;;;;;;;;;;5035012;28;20057;-76
2022/08/27 06:37:07;;;;;;;6.43;3.67;;;;;;;;;;5035048;28;20049;-76
2022/08/27 06:39:35;;;;;;;4.88;3.65;;;;;;;;;;5034643;28;20081;-76
2022/08/27 06:42:02;;;;;;;5.10;3.47;;;;;;;;;;5034429;28;20407;-76
2022/08/27 06:44:29;;;;;;;4.82;3.45;;;;;;;;;;5034631;28;20045;-76
2022/08/27 06:46:56;;;;;;;4.82;4.28;;;;;;;;;;5034825;28;20053;-76
2022/08/27 06:49:22;;;;;;;4.75;4.28;;;;;;;;;;5035024;28;20045;-76
2022/08/27 06:51:49;;;;;;;4.55;4.10;;;;;;;;;;5034731;28;20046;-76
2022/08/27 06:54:16;;;;;;;5.45;4.50;;;;;;;;;;5034395;28;20090;-76
2022/08/27 06:56:43;;;;;;;6.40;4.67;;;;;;;;;;5034568;28;20057;-75
2022/08/27 06:59:10;;;;;;;6.22;4.30;;;;;;;;;;5034529;28;20468;-76
2022/08/27 07:01:39;;;;;;;6.05;4.32;;;;;;;;;;5033211;28;20115;-76
2022/08/27 07:04:09;;;;;;;5.07;4.50;;;;;;;;;;5034532;28;20069;-75
2022/08/27 07:06:36;;;;;;;4.53;4.10;;;;;;;;;;5032541;28;20076;-70
2022/08/27 07:09:03;;;;;;;5.95;4.30;;;;;;;;;;5032981;28;20077;-74
2022/08/27 07:11:32;;;;;;;6.18;4.65;;;;;;;;;;5033631;28;20631;-74
2022/08/27 07:13:59;;;;;;;4.97;4.47;;;;;;;;;;5033752;28;20042;-78
2022/08/27 07:16:26;;;;;;;5.25;4.75;;;;;;;;;;5033702;28;20041;-75
2022/08/27 07:18:54;;;;;;;8.40;4.93;;;;;;;;;;5033822;28;20053;-78
2022/08/27 07:21:21;;;;;;;9.35;5.10;;;;;;;;;;5032265;28;20252;-78
2022/08/27 07:23:48;;;;;;;6.03;5.20;;;;;;;;;;5032982;28;20195;-79
2022/08/27 07:26:15;;;;;;;5.85;5.28;;;;;;;;;;5033334;28;20096;-79
2022/08/27 07:28:42;;;;;;;7.65;5.40;;;;;;;;;;5032101;28;20575;-77
2022/08/27 07:31:09;;;;;;;;;;;;;;;;;;5032417;28;20544;-72
2022/08/27 07:33:36;;;;;;;6.40;4.97;;;;;;;;;;5031696;28;19956;-71
2022/08/27 07:36:06;;;;;;;5.50;4.97;;;;;;;;;;5032524;28;20103;-72
2022/08/27 07:38:33;;;;;;;6.53;5.35;;;;;;;;;;5032831;28;20647;-72
2022/08/27 07:40:59;;;;;;;;;;;;;;;;;;5033696;28;20053;-73
2022/08/27 07:46:11;;;;;;;6.43;5.72;;;;;;;;;;5033028;28;20049;-73
2022/08/27 07:48:37;;;;;;;5.60;5.07;;;;;;;;;;5033026;28;20095;-74
2022/08/27 07:51:04;;;;;;;5.80;5.07;;;;;;;;;;5033230;28;20041;-71
2022/08/27 07:53:31;;;;;;;8.77;5.60;;;;;;;;;;5033022;28;20421;-75
2022/08/27 07:56:02;;;;;;;6.85;5.32;;;;;;;;;;5033229;28;20054;-75
2022/08/27 07:58:28;;;;;;;6.53;5.82;;;;;;;;;;5033285;28;20545;-78
2022/08/27 08:00:55;;;;;;;7.60;5.65;;;;;;;;;;5033183;28;20076;-78
2022/08/27 08:03:22;;;;;;;7.47;5.55;;;;;;;;;;5032992;28;20088;-74
2022/08/27 08:05:51;;;;;;;5.45;4.93;;;;;;;;;;5033429;28;20164;-75
2022/08/27 08:08:21;;;;;;;6.43;5.45;;;;;;;;;;5032182;28;20068;-76
2022/08/27 08:10:48;;;;;;;6.80;5.70;;;;;;;;;;5032483;28;20468;-78
2022/08/27 08:13:15;;;;;;;6.85;5.47;;;;;;;;;;5033219;28;20049;-75
2022/08/27 08:15:43;;;;;;;6.32;5.70;;;;;;;;;;5032813;28;20076;-73
2022/08/27 08:18:09;;;;;;;6.53;5.93;;;;;;;;;;5033173;28;20183;-77
2022/08/27 08:20:36;;;;;;;;;;;;;;;;;;5032536;28;20046;-79
2022/08/27 08:23:22;;;;;;;5.75;5.20;;;;;;;;;;5032269;28;19921;-76
2022/08/27 08:25:49;;;;;;;5.72;5.18;;;;;;;;;;5030921;28;20569;-78
2022/08/27 08:28:15;;;;;;;5.50;5.00;;;;;;;;;;5032116;28;20555;-74
2022/08/27 08:30:42;;;;;;;5.55;4.82;;;;;;;;;;5031645;28;20038;-74
2022/08/27 08:33:09;;;;;;;6.60;5.90;;;;;;;;;;5032104;28;20107;-75
2022/08/27 08:35:39;;;;;;;6.05;5.30;;;;;;;;;;5031638;28;20085;-76
2022/08/27 08:38:06;;;;;;;6.38;5.78;;;;;;;;;;5031615;28;20496;-75
2022/08/27 08:40:39;;;;;;;6.10;5.13;;;;;;;;;;5032265;28;20049;-79
2022/08/27 08:43:08;;;;;;;7.68;6.03;;;;;;;;;;5032043;28;20175;-79
2022/08/27 08:45:36;;;;;;;5.90;5.32;;;;;;;;;;5030891;28;20551;-77
2022/08/27 08:48:03;;;;;;;7.85;6.18;;;;;;;;;;5025929;28;20045;-80
2022/08/27 08:50:33;;;;;;;6.90;5.63;;;;;;;;;;5022640;28;20049;-75
2022/08/27 08:53:19;;;;;;;6.07;5.47;;;;;;;;;;5031609;28;20425;-75
2022/08/27 08:55:54;;;;;;;7.10;5.55;;;;;;;;;;5030743;28;20049;-80
2022/08/27 08:58:39;;;;;;;6.60;5.90;;;;;;;;;;5031936;28;20080;-76
2022/08/27 09:01:07;;;;;;;6.80;6.20;;;;;;;;;;5031690;28;20053;-78
2022/08/27 09:03:35;;;;;;;6.53;5.90;;;;;;;;;;5031796;28;20560;-80
2022/08/27 09:06:04;;;;;;;6.78;6.03;;;;;;;;;;5030098;28;20056;-79
2022/08/27 09:08:32;;;;;;;6.90;5.68;;;;;;;;;;5021049;28;20418;-77
2022/08/27 09:11:06;;;;;;;6.90;6.20;;;;;;;;;;5031541;28;20050;-74
2022/08/27 09:13:32;;;;;;;;;;;;;;;;;;5031801;28;20575;-74
2022/08/27 09:16:01;;;;;;;8.05;5.97;;;;;;;;;;5030101;28;19972;-75
2022/08/27 09:18:28;;;;;;;7.22;6.38;;;;;;;;;;5031393;28;20555;-75
2022/08/27 09:21:07;;;;;;;6.88;6.10;;;;;;;;;;5031503;28;20088;-75
2022/08/27 09:23:47;;;;;;;6.85;6.25;;;;;;;;;;5031344;28;20387;-75
2022/08/27 09:26:22;;;;;;;6.72;5.22;;;;;;;;;;5031348;28;20570;-75
2022/08/27 09:31:41;;;;;;;7.40;5.35;;;;;;;;;;5031606;28;20042;-76
2022/08/27 09:34:07;;;;;;;5.90;5.30;;;;;;;;;;5031314;28;20057;-77
2022/08/27 09:36:33;;;;;;;;;;;;;;;;;;5030385;28;20080;-75
2022/08/27 09:39:04;;;;;;;4.93;4.53;;;;;;;;;;5030775;28;19967;-73
2022/08/27 09:41:41;;;;;;;4.95;4.30;;;;;;;;;;5015440;28;20115;-76
2022/08/27 09:44:10;;;;;;;5.47;5.07;;;;;;;;;;5030211;28;20128;-75
2022/08/27 09:46:37;;;;;;;4.90;4.40;;;;;;;;;;5031181;28;20046;-76
2022/08/27 09:49:13;;;;;;;5.05;4.65;;;;;;;;;;5030985;28;20083;-74
2022/08/27 09:51:41;;;;;;;5.57;4.10;;;;;;;;;;5030956;28;20501;-75
2022/08/27 09:54:07;;;;;;;5.63;4.15;;;;;;;;;;5030806;28;20080;-77
2022/08/27 09:56:35;;;;;;;5.50;4.47;;;;;;;;;;5030641;28;20084;-76
2022/08/27 09:59:02;;;;;;;5.53;4.82;;;;;;;;;;5035091;28;20555;-74
2022/08/27 10:01:30;;;;;;;5.45;4.82;;;;;;;;;;5035189;28;20139;-76
2022/08/27 10:04:05;;;;;;;5.22;4.78;;;;;;;;;;5032901;28;20081;-77
2022/08/27 10:06:32;;;;;;;5.20;4.65;;;;;;;;;;5033784;28;20041;-80
2022/08/27 10:09:01;;;;;;;5.15;4.75;;;;;;;;;;5034140;28;20067;-77
2022/08/27 10:11:42;;;;;;;5.72;5.10;;;;;;;;;;5034624;28;20053;-77
2022/08/27 10:14:13;;;;;;;7.13;4.60;;;;;;;;;;5034801;28;20041;-77
2022/08/27 10:16:42;;;;;;;5.47;4.97;;;;;;;;;;5034679;28;20053;-77
2022/08/27 10:19:24;;;;;;;5.43;4.63;;;;;;;;;;5035136;28;20128;-77
2022/08/27 10:21:55;;;;;;;5.38;4.97;;;;;;;;;;5034983;28;20096;-76
2022/08/27 10:24:32;;;;;;;5.55;4.95;;;;;;;;;;5035199;28;20107;-77
2022/08/27 10:27:02;;;;;;;5.65;5.03;;;;;;;;;;5034908;28;20041;-76
2022/08/27 10:29:39;;;;;;;4.55;4.15;;;;;;;;;;5034660;28;20481;-76
2022/08/27 10:32:32;;;;;;;3.67;3.38;;;;;;;;;;5034794;28;20084;-76
2022/08/27 10:35:15;;;;;;;3.40;3.13;;;;;;;;;;5033889;28;20091;-77
2022/08/27 10:37:41;;;;;;;3.63;2.75;;;;;;;;;;5035078;28;20086;-75
2022/08/27 10:40:23;;;;;;;3.50;2.60;;;;;;;;;;5034642;28;20081;-75
2022/08/27 10:43:08;;;;;;;4.53;2.60;;;;;;;;;;5034704;28;20056;-75
2022/08/27 10:45:46;;;;;;;3.42;3.13;;;;;;;;;;5034813;28;20049;-76
2022/08/27 10:48:12;;;;;;;4.93;4.00;;;;;;;;;;5034885;28;20072;-76
2022/08/27 10:51:03;;;;;;;4.63;3.20;;;;;;;;;;5033306;28;20041;-76
2022/08/27 10:53:48;;;;;;;3.85;2.85;;;;;;;;;;5034839;28;20053;-76
2022/08/27 10:56:15;;;;;;;3.20;1.88;;;;;;;;;;5034433;28;20085;-77
2022/08/27 10:59:03;;;;;;;2.75;1.83;;;;;;;;;;5034246;28;20057;-77
2022/08/27 11:01:38;;;;;;;3.60;2.35;;;;;;;;;;5033989;28;20555;-77
2022/08/27 11:04:06;;;;;;;2.40;2.05;;;;;;;;;;5034451;28;20083;-77
2022/08/27 11:07:00;;;;;;;2.97;2.20;;;;;;;;;;5033792;28;20431;-77
2022/08/27 11:09:45;;;;;;;2.25;1.80;;;;;;;;;;5033292;28;20494;-77
2022/08/27 11:12:14;;;;;;;3.75;2.03;;;;;;;;;;5033992;28;20456;-76
2022/08/27 11:14:43;;;;;;;2.30;2.10;;;;;;;;;;5034123;28;20127;-76
2022/08/27 11:17:14;;;;;;;2.58;2.10;;;;;;;;;;5034242;28;20531;-77
2022/08/27 11:19:57;;;;;;;2.42;2.22;;;;;;;;;;5032790;28;20041;-77
2022/08/27 11:22:28;;;;;;;2.60;2.40;;;;;;;;;;5033755;28;20084;-77
2022/08/27 11:25:13;;;;;;;2.38;2.13;;;;;;;;;;5032863;28;20096;-77
2022/08/27 11:27:39;;;;;;;1.95;1.85;;;;;;;;;;5033817;28;20081;-77
2022/08/27 11:30:08;;;;;;;2.75;2.20;;;;;;;;;;5033987;28;20076;-77
2022/08/27 11:32:35;;;;;;;1.52;1.42;;;;;;;;;;5033730;28;20548;-77
2022/08/27 11:35:05;;;;;;;2.03;1.83;;;;;;;;;;5033574;28;20088;-77
2022/08/27 11:37:44;;;;;;;1.83;1.50;;;;;;;;;;5033943;28;20076;-77
2022/08/27 11:40:17;;;;;;;3.53;1.88;;;;;;;;;;5033537;28;20107;-80
2022/08/27 11:42:47;;;;;;;2.05;1.70;;;;;;;;;;5026229;28;20081;-77
2022/08/27 11:45:37;;;;;;;1.67;1.50;;;;;;;;;;5032142;28;20081;-77
2022/08/27 11:48:23;;;;;;;1.80;1.55;;;;;;;;;;5033454;28;20471;-76
2022/08/27 11:50:59;;;;;;;1.73;1.52;;;;;;;;;;5033046;28;20092;-77
2022/08/27 11:53:27;;;;;;;2.60;1.88;;;;;;;;;;5033395;28;20084;-76
2022/08/27 11:55:54;;;;;;;2.22;1.92;;;;;;;;;;5033644;28;20104;-76
2022/08/27 11:58:20;;;;;;;2.53;1.77;;;;;;;;;;5033741;28;20111;-77
2022/08/27 12:00:47;;;;;;;3.08;2.20;;;;;;;;;;5031633;28;20092;-76
2022/08/27 12:03:19;;;;;;;2.95;2.60;;;;;;;;;;5030442;28;20053;-76
2022/08/27 12:05:46;;;;;;;2.40;2.20;;;;;;;;;;5032850;28;20048;-78
2022/08/27 12:08:15;;;;;;;2.45;1.90;;;;;;;;;;5032783;28;20045;-77
2022/08/27 12:11:02;;;;;;;2.28;2.08;;;;;;;;;;5032188;28;20068;-75
2022/08/27 12:13:48;;;;;;;2.42;1.45;;;;;;;;;;5031877;28;20056;-75
2022/08/27 12:16:33;;;;;;;2.05;1.50;;;;;;;;;;5029776;28;20765;-74
2022/08/27 12:19:04;;;;;;;1.88;1.48;;;;;;;;;;5031746;28;20421;-74
2022/08/27 12:21:33;;;;;;;2.55;1.73;;;;;;;;;;5031341;28;20085;-74
2022/08/27 12:24:00;;;;;;;2.10;1.67;;;;;;;;;;5032464;28;20080;-74
2022/08/27 12:26:34;;;;;;;1.90;1.60;;;;;;;;;;5032548;28;20057;-75
2022/08/27 12:29:19;;;;;;;2.75;1.20;;;;;;;;;;5032179;28;20077;-73
2022/08/27 12:31:55;;;;;;;1.92;1.30;;;;;;;;;;5028584;28;21322;-76
2022/08/27 12:34:25;;;;;;;1.95;1.23;;;;;;;;;;5031589;28;20093;-74
2022/08/27 12:36:52;;;;;;;1.73;0.90;;;;;;;;;;5032030;28;20104;-74
2022/08/27 12:39:22;;;;;;;0.90;0.88;;;;;;;;;;5031452;28;20053;-74
2022/08/27 12:41:49;;;;;;;1.10;1.02;;;;;;;;;;5031053;28;20489;-74
2022/08/27 12:44:24;;;;;;;1.30;1.20;;;;;;;;;;5032059;28;20094;-74
2022/08/27 12:46:53;;;;;;;2.13;1.45;;;;;;;;;;5031865;28;20198;-71
2022/08/27 12:49:21;;;;;;;2.38;1.67;;;;;;;;;;5032170;28;20446;-70
2022/08/27 12:52:13;;;;;;;2.67;1.60;;;;;;;;;;5027954;28;20049;-76
2022/08/27 12:54:39;;;;;;;1.67;1.30;;;;;;;;;;5031651;28;20080;-70
2022/08/27 12:57:11;;;;;;;1.92;1.17;;;;;;;;;;5030887;28;20494;-70
2022/08/27 12:59:47;;;;;;;2.17;1.10;;;;;;;;;;5031127;28;20505;-74
2022/08/27 13:02:22;;;;;;;1.10;1.08;;;;;;;;;;5031277;28;20132;-73
2022/08/27 13:04:48;;;;;;;2.03;0.70;;;;;;;;;;5031058;28;20076;-70
2022/08/27 13:07:25;;;;;;;1.25;0.80;;;;;;;;;;5031266;28;20092;-70
2022/08/27 13:10:18;;;;;;;1.45;0.82;;;;;;;;;;5031205;28;20494;-72
2022/08/27 13:12:45;;;;;;;2.92;0.90;;;;;;;;;;5031321;28;20046;-71
2022/08/27 13:15:13;;;;;;;2.13;1.00;;;;;;;;;;5030865;28;20081;-70
2022/08/27 13:17:43;;;;;;;1.70;1.10;;;;;;;;;;5030965;28;20045;-73
2022/08/27 13:20:20;;;;;;;1.58;1.13;;;;;;;;;;5031059;28;20045;-70
2022/08/27 13:22:47;;;;;;;1.77;1.20;;;;;;;;;;5030956;28;20422;-72
2022/08/27 13:25:19;;;;;;;2.38;1.40;;;;;;;;;;5028224;28;20049;-76
2022/08/27 13:27:54;;;;;;;3.05;1.40;;;;;;;;;;5030061;28;20465;-76
2022/08/27 13:30:21;;;;;;;1.52;1.00;;;;;;;;;;5026305;28;20098;-76
2022/08/27 13:33:03;;;;;;;0.80;0.80;;;;;;;;;;5027307;28;20132;-76
2022/08/27 13:35:33;;;;;;;1.23;1.02;;;;;;;;;;5028428;28;20076;-75
2022/08/27 13:38:00;;;;;;;2.42;1.10;;;;;;;;;;5030526;28;20167;-74
2022/08/27 13:40:33;;;;;;;1.05;0.75;;;;;;;;;;5031098;28;20073;-76
2022/08/27 13:43:05;;;;;;;2.92;0.88;;;;;;;;;;5031103;28;20140;-76
2022/08/27 13:45:34;;;;;;;1.67;0.77;;;;;;;;;;5031359;28;20149;-75
2022/08/27 13:48:01;;;;;;;0.80;0.80;;;;;;;;;;5031885;28;20077;-75
2022/08/27 13:50:29;;;;;;;1.45;0.70;;;;;;;;;;5031096;28;20099;-75
2022/08/27 13:55:53;;;;;;;1.70;0.75;;;;;;;;;;5031016;28;20123;-75
2022/08/27 13:58:27;;;;;;;1.30;0.80;;;;;;;;;;5031293;28;20076;-75
2022/08/27 14:01:05;;;;;;;1.85;1.15;;;;;;;;;;5031221;28;20080;-74
2022/08/27 14:03:33;;;;;;;1.83;0.63;;;;;;;;;;5029529;28;20045;-76
2022/08/27 14:06:00;;;;;;;0.90;0.55;;;;;;;;;;5029297;28;20077;-77
2022/08/27 14:08:29;;;;;;;1.05;0.82;;;;;;;;;;5029767;28;20045;-77
2022/08/27 14:11:01;;;;;;;1.25;0.70;;;;;;;;;;5030978;28;20555;-75
2022/08/27 14:13:29;;;;;;;0.82;0.82;;;;;;;;;;5030659;28;20108;-77
2022/08/27 14:15:58;;;;;;;0.82;0.60;;;;;;;;;;5030745;28;20087;-77
2022/08/27 14:18:29;;;;;;;0.75;0.70;;;;;;;;;;5031008;28;20132;-73
2022/08/27 14:21:15;;;;;;;0.80;0.50;;;;;;;;;;5030593;28;20061;-78
2022/08/27 14:23:42;;;;;;;0.93;0.65;;;;;;;;;;5031239;28;20103;-73
2022/08/27 14:26:08;;;;;;;0.60;0.55;;;;;;;;;;5031469;28;20049;-77
2022/08/27 14:28:35;;;;;;;0.60;0.40;;;;;;;;;;5024822;28;20551;-71
2022/08/27 14:31:02;;;;;;;0.52;0.40;;;;;;;;;;5025212;28;20046;-73
2022/08/27 14:33:29;;;;;;;0.30;0.30;;;;;;;;;;5030129;28;20569;-71
2022/08/27 14:35:55;;;;;;;2.20;0.60;;;;;;;;;;5029906;28;20049;-75
2022/08/27 14:38:22;;;;;;;0.57;0.40;;;;;;;;;;5028767;28;20053;-72
2022/08/27 14:40:51;;;;;;;0.85;0.40;;;;;;;;;;5030030;28;20053;-71
2022/08/27 14:43:18;;;;;;;2.83;0.80;;;;;;;;;;5031293;28;20046;-72
2022/08/27 14:45:48;;;;;;;1.20;0.70;;;;;;;;;;5033647;28;20060;-75
2022/08/27 14:48:22;;;;;;;5.80;2.22;;;;;;;;;;5034236;28;20390;-77
2022/08/27 14:50:54;;;;;;;1.50;0.60;;;;;;;;;;5033416;28;20053;-76
2022/08/27 14:53:20;;;;;;;3.30;0.85;;;;;;;;;;5032337;28;20123;-75
2022/08/27 14:55:47;;;;;;;1.20;0.50;;;;;;;;;;5033051;28;20383;-75
2022/08/27 14:58:17;;;;;;;3.35;0.90;;;;;;;;;;5020204;28;20073;-73
2022/08/27 15:00:44;;;;;;;2.35;1.00;;;;;;;;;;5033849;28;20494;-72
2022/08/27 15:03:10;;;;;;;1.58;1.10;;;;;;;;;;5034314;28;20100;-72
2022/08/27 15:05:37;;;;;;;1.88;0.95;;;;;;;;;;5033760;28;20046;-72
2022/08/27 15:08:04;;;;;;;3.47;1.50;;;;;;;;;;5034168;28;20095;-75
2022/08/27 15:10:31;;;;;;;2.28;1.48;;;;;;;;;;5033141;28;20129;-73
2022/08/27 15:12:57;;;;;;;1.92;1.23;;;;;;;;;;5033872;28;20073;-72